Flight Track Log - Related Links

Times and Time Zones

All times are in EDT time to prevent confusion due to time zone crossing. See the UPS2872 flight status page for this flight to view local times or setup timezone preferences in your user account.

Time Position Orientation Groundspeed Altitude Reporting Facility
EDT Latitude Longitude Course Direction KTS MPH feet Rate Location/Type
Wed 05:08:01 PM 38.2570 -85.7940 317° Northwest 256 295 3,800  Level FlightAware ADS-B
Wed 05:10:16 PM 38.2410 -86.0110 265° West 264 304 10,300 2,033 Climbing FlightAware ADS-B
Wed 05:12:06 PM 38.2160 -86.2120 261° West 341 392 12,100 1,846 Climbing FlightAware ADS-B
Wed 05:12:52 PM 38.1850 -86.3290 251° West 388 447 15,100 4,400 Climbing FlightAware ADS-B
Wed 05:13:21 PM 38.1760 -86.4090 262° West 392 451 17,600 2,129 Climbing FlightAware ADS-B
Wed 05:14:25 PM 38.1710 -86.5370 267° West 392 451 18,400 1,385 Climbing FlightAware ADS-B
Wed 05:15:05 PM 38.1920 -86.6530 283° West 411 473 20,000 1,263 Climbing FlightAware ADS-B
Wed 05:15:41 PM 38.1980 -86.7260 276° West 411 473 20,000 1,714 Level FlightAware ADS-B
Wed 05:16:36 PM 38.1760 -86.8920 260° West 460 529 22,600 2,362 Climbing FlightAware ADS-B
Wed 05:17:15 PM 38.1610 -86.9970 260° West 469 540 23,700 1,579 Climbing FlightAware ADS-B
Wed 05:17:52 PM 38.1470 -87.0990 260° West 476 548 24,600 1,437 Climbing FlightAware ADS-B
Wed 05:18:26 PM 38.1340 -87.1960 260° West 484 557 25,400 1,385 Climbing FlightAware ADS-B
Wed 05:19:10 PM 38.1170 -87.3190 260° West 492 566 26,400 1,425 Climbing FlightAware ADS-B
Wed 05:19:46 PM 38.1030 -87.4200 260° West 494 568 27,300 1,518 Climbing FlightAware ADS-B
Wed 05:20:33 PM 38.0840 -87.5530 260° West 493 567 28,500 1,537 Climbing FlightAware ADS-B
Wed 05:21:08 PM 38.0700 -87.6530 260° West 491 565 29,400 1,482 Climbing FlightAware ADS-B
Wed 05:21:58 PM 38.0490 -87.7950 259° West 488 562 30,600 1,483 Climbing FlightAware ADS-B
Wed 05:22:37 PM 38.0340 -87.9040 260° West 481 554 31,600 1,125 Climbing FlightAware ADS-B
Wed 05:23:18 PM 38.0170 -88.0170 259° West 480 552 32,100 345 Climbing FlightAware ADS-B
Wed 05:24:04 PM 37.9990 -88.1440 260° West 474 545 32,100 -71 Level FlightAware ADS-B
Wed 05:24:43 PM 37.9830 -88.2500 259° West 471 542 32,000  Descending FlightAware ADS-B
Wed 05:25:28 PM 37.9650 -88.3730 260° West 474 545 32,100 71 Climbing FlightAware ADS-B
Wed 05:26:08 PM 37.9490 -88.4830 260° West 476 548 32,100  Level FlightAware ADS-B
Wed 05:26:50 PM 37.9320 -88.5970 259° West 478 550 32,100  Level FlightAware ADS-B
Wed 05:27:30 PM 37.9240 -88.7090 265° West 479 551 32,100  Level FlightAware ADS-B
Wed 05:28:13 PM 37.9170 -88.8280 266° West 478 550 32,100  Level FlightAware ADS-B
Wed 05:28:54 PM 37.9090 -88.9430 265° West 477 549 32,100 -71 Level FlightAware ADS-B
Wed 05:29:38 PM 37.9010 -89.0650 265° West 477 549 32,000  Descending FlightAware ADS-B
Wed 05:30:20 PM 37.8930 -89.1800 265° West 478 550 32,100 70 Climbing FlightAware ADS-B
Wed 05:31:04 PM 37.8840 -89.3040 265° West 478 550 32,100  Level FlightAware ADS-B
Wed 05:31:46 PM 37.8760 -89.4170 265° West 480 552 32,100  Level FlightAware ADS-B
Wed 05:32:24 PM 37.8690 -89.5240 265° West 483 556 32,100  Level FlightAware ADS-B
Wed 05:33:10 PM 37.8590 -89.6550 265° West 483 556 32,100  Level FlightAware ADS-B
Wed 05:33:44 PM 37.8520 -89.7420 264° West 483 556 32,100  Level FlightAware ADS-B
Wed 05:34:22 PM 37.8440 -89.8330 264° West 483 556 32,100  Level FlightAware ADS-B
Wed 05:35:06 PM 37.8350 -89.9790 266° West 482 555 32,100  Level FlightAware ADS-B
Wed 05:35:52 PM 37.8250 -90.0920 264° West 482 555 32,100  Level FlightAware ADS-B
Wed 05:36:28 PM 37.8180 -90.1780 264° West 482 555 32,100  Level FlightAware ADS-B
Wed 05:37:04 PM 37.8110 -90.2640 264° West 482 555 32,100  Level FlightAware ADS-B
Wed 05:38:04 PM 37.7990 -90.4070 264° West 482 555 32,100  Level FlightAware ADS-B
Wed 05:38:40 PM 37.7920 -90.4930 264° West 482 555 32,100  Level FlightAware ADS-B
Wed 05:39:40 PM 37.7800 -90.6360 264° West 482 555 32,100  Level FlightAware ADS-B
Wed 05:40:16 PM 37.7730 -90.7220 264° West 482 555 32,100  Level FlightAware ADS-B
Wed 05:41:05 PM 37.7630 -90.8390 264° West 482 555 32,100  Level FlightAware ADS-B
Wed 05:41:41 PM 37.7560 -90.9250 264° West 482 555 32,100  Level FlightAware ADS-B
Wed 05:42:17 PM 37.7490 -91.0100 264° West 482 555 32,100  Level FlightAware ADS-B
Wed 05:43:06 PM 37.7390 -91.1270 264° West 482 555 32,100  Level FlightAware ADS-B
Wed 05:43:42 PM 37.7320 -91.2130 264° West 482 555 32,100  Level FlightAware ADS-B
Wed 05:44:23 PM 37.7310 -91.5410 270° West 481 554 32,100  Level FlightAware ADS-B
Wed 05:45:05 PM 37.7210 -91.6570 264° West 479 551 32,100  Level FlightAware ADS-B
Wed 05:45:45 PM 37.7100 -91.7700 263° West 478 550 32,100  Level FlightAware ADS-B
Wed 05:46:27 PM 37.6990 -91.8830 263° West 476 548 32,100  Level FlightAware ADS-B
Wed 05:47:09 PM 37.6880 -92.0010 263° West 473 544 32,100 -70 Level FlightAware ADS-B
Wed 05:47:53 PM 37.6770 -92.1210 263° West 474 545 32,000  Descending FlightAware ADS-B
Wed 05:48:33 PM 37.6660 -92.2310 263° West 477 549 32,100 75 Climbing FlightAware ADS-B
Wed 05:49:13 PM 37.6550 -92.3410 263° West 479 551 32,100  Level FlightAware ADS-B
Wed 05:49:57 PM 37.6430 -92.4650 263° West 479 551 32,100  Level FlightAware ADS-B
Wed 05:50:41 PM 37.6310 -92.5860 263° West 477 549 32,100  Level FlightAware ADS-B
Wed 05:51:21 PM 37.6200 -92.6970 263° West 476 548 32,100  Level FlightAware ADS-B
Wed 05:52:05 PM 37.6080 -92.8160 263° West 476 548 32,100  Level FlightAware ADS-B
Wed 05:52:39 PM 37.5980 -92.9100 262° West 475 547 32,100  Level FlightAware ADS-B
Wed 05:53:23 PM 37.5850 -93.0320 262° West 475 547 32,100  Level FlightAware ADS-B
Wed 05:54:03 PM 37.5740 -93.1400 263° West 474 545 32,100  Level FlightAware ADS-B
Wed 05:54:43 PM 37.5620 -93.2480 262° West 473 544 32,100  Level FlightAware ADS-B
Wed 05:55:25 PM 37.5500 -93.3650 263° West 472 543 32,100  Level FlightAware ADS-B
Wed 05:56:09 PM 37.5370 -93.4830 262° West 470 541 32,100  Level FlightAware ADS-B
Wed 05:56:50 PM 37.5250 -93.5930 262° West 471 542 32,100  Level FlightAware ADS-B
Wed 05:57:25 PM 37.5150 -93.6890 263° West 471 542 32,100  Level FlightAware ADS-B
Wed 05:58:08 PM 37.5020 -93.8030 262° West 472 543 32,100  Level FlightAware ADS-B
Wed 05:58:51 PM 37.4890 -93.9210 262° West 471 542 32,100  Level FlightAware ADS-B
Wed 05:59:32 PM 37.4760 -94.0320 262° West 470 541 32,100  Level FlightAware ADS-B
Wed 06:00:15 PM 37.4620 -94.1510 262° West 470 541 32,100  Level FlightAware ADS-B
Wed 06:00:55 PM 37.4500 -94.2600 262° West 469 540 32,100  Level FlightAware ADS-B
Wed 06:01:37 PM 37.4370 -94.3720 262° West 470 541 32,100  Level FlightAware ADS-B
Wed 06:02:19 PM 37.4230 -94.4880 261° West 473 544 32,100  Level FlightAware ADS-B
Wed 06:03:03 PM 37.4100 -94.6060 262° West 474 545 32,100  Level FlightAware ADS-B
Wed 06:03:45 PM 37.3960 -94.7180 261° West 475 547 32,100  Level FlightAware ADS-B
Wed 06:04:25 PM 37.3830 -94.8290 262° West 474 545 32,100  Level FlightAware ADS-B
Wed 06:05:09 PM 37.3680 -94.9500 261° West 471 542 32,100  Level FlightAware ADS-B
Wed 06:05:49 PM 37.3550 -95.0550 261° West 471 542 32,100  Level FlightAware ADS-B
Wed 06:06:25 PM 37.3430 -95.1520 261° West 469 540 32,100  Level FlightAware ADS-B
Wed 06:07:05 PM 37.3300 -95.2610 262° West 469 540 32,100  Level FlightAware ADS-B
Wed 06:07:49 PM 37.3150 -95.3770 261° West 467 537 32,100  Level FlightAware ADS-B
Wed 06:08:25 PM 37.3030 -95.4740 261° West 466 536 32,100  Level FlightAware ADS-B
Wed 06:09:05 PM 37.2900 -95.5790 261° West 466 536 32,100  Level FlightAware ADS-B
Wed 06:09:50 PM 37.2740 -95.7010 261° West 467 537 32,100  Level FlightAware ADS-B
Wed 06:10:26 PM 37.2620 -95.7980 261° West 467 537 32,100  Level FlightAware ADS-B
Wed 06:11:48 PM 37.2330 -96.0170 261° West 467 537 32,100  Level FlightAware ADS-B
Wed 06:12:26 PM 37.2200 -96.1190 261° West 467 537 32,100  Level FlightAware ADS-B
Wed 06:13:06 PM 37.2070 -96.2190 261° West 466 536 32,100  Level FlightAware ADS-B
Wed 06:13:48 PM 37.1910 -96.3370 260° West 466 536 32,100  Level FlightAware ADS-B
Wed 06:14:30 PM 37.1760 -96.4480 260° West 467 537 32,100  Level FlightAware ADS-B
Wed 06:15:12 PM 37.1600 -96.5610 260° West 469 540 32,100  Level FlightAware ADS-B
Wed 06:15:56 PM 37.1440 -96.6790 260° West 469 540 32,100  Level FlightAware ADS-B
Wed 06:16:36 PM 37.1290 -96.7870 260° West 468 539 32,100  Level FlightAware ADS-B
Wed 06:17:12 PM 37.1170 -96.8800 261° West 467 537 32,100  Level FlightAware ADS-B
Wed 06:17:52 PM 37.1020 -96.9880 260° West 467 537 32,100  Level FlightAware ADS-B
Wed 06:18:37 PM 37.0850 -97.1070 260° West 467 537 32,100  Level FlightAware ADS-B
Wed 06:19:13 PM 37.0710 -97.2000 259° West 467 537 32,100  Level FlightAware ADS-B
Wed 06:19:53 PM 37.0560 -97.3090 260° West 467 537 32,100  Level FlightAware ADS-B
Wed 06:22:45 PM 36.9960 -97.7260 260° West 470 541 32,100  Level FlightAware ADS-B
Wed 06:23:54 PM 36.9690 -97.9100 260° West 471 542 32,100  Level FlightAware ADS-B
Wed 06:24:41 PM 36.9430 -98.0780 259° West 472 543 32,100 -69 Level FlightAware ADS-B
Wed 06:25:21 PM 36.9280 -98.1810 260° West 474 545 32,000  Descending FlightAware ADS-B
Wed 06:26:02 PM 36.9110 -98.2940 259° West 476 548 32,100 53 Climbing FlightAware ADS-B
Wed 06:27:14 PM 36.8810 -98.4890 259° West 474 545 32,100  Level FlightAware ADS-B
Wed 06:28:03 PM 36.8610 -98.6100 258° West 475 547 32,100  Level FlightAware ADS-B
Wed 06:28:51 PM 36.8430 -98.7190 258° West 475 547 32,100  Level FlightAware ADS-B
Wed 06:29:27 PM 36.8290 -98.8010 258° West 475 547 32,100  Level FlightAware ADS-B
Wed 06:30:03 PM 36.8150 -98.8840 258° West 475 547 32,100  Level FlightAware ADS-B
Wed 06:30:51 PM 36.7960 -98.9930 258° West 475 547 32,100  Level FlightAware ADS-B
Wed 06:31:22 PM 36.7770 -99.1540 262° West 473 544 32,100  Level FlightAware ADS-B
Wed 06:31:59 PM 36.7620 -99.2380 257° West 473 544 32,100  Level FlightAware ADS-B
Wed 06:32:47 PM 36.7440 -99.3470 258° West 473 544 32,100  Level FlightAware ADS-B
Wed 06:33:23 PM 36.7300 -99.4290 258° West 473 544 32,100  Level FlightAware ADS-B
Wed 06:34:11 PM 36.7110 -99.5380 258° West 473 544 32,100  Level FlightAware ADS-B
Wed 06:34:36 PM 36.7020 -99.5940 259° West 473 544 32,100  Level FlightAware ADS-B
Wed 06:35:24 PM 36.6830 -99.7030 258° West 473 544 32,100  Level FlightAware ADS-B
Wed 06:36:00 PM 36.6690 -99.7850 258° West 473 544 32,100  Level FlightAware ADS-B
Wed 06:36:36 PM 36.6550 -99.8670 258° West 473 544 32,100  Level FlightAware ADS-B
Wed 06:37:25 PM 36.6360 -99.9780 258° West 473 544 32,100  Level FlightAware ADS-B
Wed 06:37:59 PM 36.6230 -100.0550 258° West 473 544 32,100  Level FlightAware ADS-B
Wed 06:38:35 PM 36.6090 -100.1360 258° West 473 544 32,100  Level FlightAware ADS-B
Wed 06:39:23 PM 36.5910 -100.2450 258° West 473 544 32,100  Level FlightAware ADS-B
Wed 06:39:59 PM 36.5770 -100.3270 258° West 473 544 32,100  Level FlightAware ADS-B
Wed 06:40:47 PM 36.5580 -100.4360 258° West 473 544 32,100  Level FlightAware ADS-B
Wed 06:41:24 PM 36.5108 -100.7439 258° West 482 555 32,100  Level Kansas City Center
Wed 06:42:25 PM 36.4792 -100.9261 258° West 483 556 32,100  Level Kansas City Center
Wed 06:43:27 PM 36.4519 -101.0814 258° West 481 554 32,100  Level Kansas City Center
Wed 06:44:30 PM 36.4194 -101.2628 257° West 481 554 32,100  Level Kansas City Center
Wed 06:45:31 PM 36.3889 -101.4336 258° West 478 550 32,100  Level Kansas City Center
Wed 06:46:33 PM 36.3600 -101.5933 257° West 478 550 32,100  Level Kansas City Center
Wed 06:47:37 PM 36.3306 -101.7531 257° West 477 549 32,100 -48 Level Kansas City Center
Wed 06:48:38 PM 36.3008 -101.9144 257° West 482 555 32,000  Descending Kansas City Center
Wed 06:49:42 PM 36.2706 -102.0733 257° West 479 551 32,100 48 Climbing Kansas City Center
Wed 06:50:43 PM 36.2344 -102.2706 257° West 484 557 32,100  Level Albuquerque Center
Wed 06:51:45 PM 36.2036 -102.4328 257° West 488 562 32,100  Level Albuquerque Center
Wed 06:52:46 PM 36.1728 -102.5956 257° West 490 564 32,100  Level Albuquerque Center
Wed 06:54:00 PM 36.1339 -102.7862 256° West  Level FlightAware Approximate
Wed 06:54:49 PM 36.1061 -102.9408 256° West 487 560 32,100  Level Albuquerque Center
Wed 06:55:50 PM 36.0742 -103.1050 257° West 490 564 32,100  Level Albuquerque Center
Wed 06:56:52 PM 36.0417 -103.2703 256° West 493 567 32,100  Level Albuquerque Center
Wed 06:57:53 PM 36.0089 -103.4358 256° West 494 568 32,100  Level Albuquerque Center
Wed 06:58:54 PM 35.9758 -103.6014 256° West 495 570 32,100  Level Albuquerque Center
Wed 06:59:57 PM 35.9425 -103.7667 256° West 494 568 32,100  Level Albuquerque Center
Wed 07:00:58 PM 35.9092 -103.9317 256° West 494 568 32,100  Level Albuquerque Center
Wed 07:01:59 PM 35.8883 -104.1008 261° West 499 574 32,100  Level Albuquerque Center
Wed 07:03:01 PM 35.8708 -104.2708 263° West 499 574 32,100 -49 Level Albuquerque Center
Wed 07:04:02 PM 35.8494 -104.4686 262° West 498 573 32,000 -49 Descending Albuquerque Center
Wed 07:05:03 PM 35.8311 -104.6386 262° West 501 577 32,000  Level Albuquerque Center
Wed 07:06:05 PM 35.8122 -104.8106 262° West 505 581 32,000 -98 Level Albuquerque Center
Wed 07:07:06 PM 35.7931 -104.9822 262° West 506 582 31,800 -787 Descending Albuquerque Center
Wed 07:08:07 PM 35.7733 -105.1550 262° West 508 585 30,400 -1,805 Descending Albuquerque Center
Wed 07:09:09 PM 35.7533 -105.3278 262° West 507 583 28,100 -2,056 Descending Albuquerque Center
Wed 07:15:13 PM 35.5360 -106.2830 262° West 418 481 15,800 -2,015 Descending FlightAware ADS-B
Wed 07:15:57 PM 35.5100 -106.3820 252° West 410 472 14,400 -1,432 Descending FlightAware ADS-B
Wed 07:16:41 PM 35.4580 -106.4570 230° Southwest 381 438 13,700 -488 Descending FlightAware ADS-B
Wed 07:17:23 PM 35.4000 -106.5080 216° Southwest 374 430 13,700 -349 Level FlightAware ADS-B
Wed 07:18:07 PM 35.3380 -106.5620 215° Southwest 367 422 13,200 -1,412 Descending FlightAware ADS-B
Wed 07:18:48 PM 35.2830 -106.6110 216° Southwest 361 415 11,700 -1,950 Descending FlightAware ADS-B
Wed 07:19:27 PM 35.2270 -106.6480 208° Southwest 331 381 10,600 -1,373 Descending FlightAware ADS-B
Wed 07:20:11 PM 35.1650 -106.6650 193° South 298 343 9,800 -1,378 Descending FlightAware ADS-B
Wed 07:20:41 PM 35.1270 -106.6830 201° Southwest 290 334 8,900 -1,552 Descending FlightAware ADS-B
Wed 07:21:09 PM 35.0930 -106.7000 202° Southwest 285 328 8,300 -1,393 Descending FlightAware ADS-B
Wed 07:21:37 PM 35.0590 -106.7160 201° Southwest 284 327 7,600 -1,286 Descending FlightAware ADS-B
Wed 07:22:05 PM 35.0240 -106.7330 202° Southwest 272 313 7,100 -625 Descending FlightAware ADS-B
Wed 07:22:25 PM 35.0020 -106.7430 200° South 250 288 7,100  Level FlightAware ADS-B
Wed 07:22:49 PM 34.9790 -106.7540 201° Southwest 223 257 7,100  Level FlightAware ADS-B
Wed 07:23:15 PM 34.9570 -106.7640 200° South 223 257 7,100  Level FlightAware ADS-B
Wed 07:23:31 PM 34.9410 -106.7530 151° Southeast 201 231 7,100  Level FlightAware ADS-B
Wed 07:23:49 PM 34.9370 -106.7330 104° East 196 226 7,100 -563 Level FlightAware ADS-B
Wed 07:24:03 PM 34.9430 -106.7210 59° Northeast 193 222 6,800 -529 Descending FlightAware ADS-B
Wed 07:24:57 PM 34.9750 -106.6878 59° Northeast 150 173 6,500 -414 Descending Albuquerque Center
Wed 07:25:30 PM 34.9856 -106.6722 50° Northeast 179 206 6,200 -727 Descending Albuquerque Center
Wed 07:26:03 PM 35.0086 -106.6481 41° Northeast 151 174 5,700 -909 Descending Albuquerque Center
Wed 07:28:00 PM 35.0333 -106.6000 90° East  Level FlightAware Approximate

Login

Don't have an account? Register now (free) for customized features, flight alerts, and more!